sensor_id;sensor_type;location;lat;lon;timestamp;P1;durP1;ratioP1;P2;durP2;ratioP2
31818;SDS011;18384;48.860;9.188;2022-12-18T00:02:02;82.60;;;35.97;;
31818;SDS011;18384;48.860;9.188;2022-12-18T00:06:54;81.80;;;33.95;;
31818;SDS011;18384;48.860;9.188;2022-12-18T00:11:47;79.87;;;35.72;;
31818;SDS011;18384;48.860;9.188;2022-12-18T00:14:13;79.07;;;35.38;;
31818;SDS011;18384;48.860;9.188;2022-12-18T00:16:40;76.65;;;34.45;;
31818;SDS011;18384;48.860;9.188;2022-12-18T00:19:10;75.95;;;35.42;;
31818;SDS011;18384;48.860;9.188;2022-12-18T00:21:36;80.68;;;35.35;;
31818;SDS011;18384;48.860;9.188;2022-12-18T00:24:05;86.37;;;37.42;;
31818;SDS011;18384;48.860;9.188;2022-12-18T00:26:32;77.40;;;36.20;;
31818;SDS011;18384;48.860;9.188;2022-12-18T00:29:00;85.80;;;35.97;;
31818;SDS011;18384;48.860;9.188;2022-12-18T00:31:31;88.03;;;38.65;;
31818;SDS011;18384;48.860;9.188;2022-12-18T00:33:57;76.32;;;34.90;;
31818;SDS011;18384;48.860;9.188;2022-12-18T00:36:28;83.57;;;36.92;;
31818;SDS011;18384;48.860;9.188;2022-12-18T00:38:58;74.28;;;35.53;;
31818;SDS011;18384;48.860;9.188;2022-12-18T00:41:26;78.47;;;36.33;;
31818;SDS011;18384;48.860;9.188;2022-12-18T00:44:12;80.47;;;36.30;;
31818;SDS011;18384;48.860;9.188;2022-12-18T00:46:41;80.82;;;36.50;;
31818;SDS011;18384;48.860;9.188;2022-12-18T00:49:08;80.45;;;37.30;;
31818;SDS011;18384;48.860;9.188;2022-12-18T00:51:38;82.70;;;37.58;;
31818;SDS011;18384;48.860;9.188;2022-12-18T00:56:30;74.65;;;35.08;;
31818;SDS011;18384;48.860;9.188;2022-12-18T01:01:22;70.30;;;32.65;;
31818;SDS011;18384;48.860;9.188;2022-12-18T01:03:48;78.70;;;36.28;;
31818;SDS011;18384;48.860;9.188;2022-12-18T01:08:41;78.00;;;36.10;;
31818;SDS011;18384;48.860;9.188;2022-12-18T01:11:08;79.35;;;36.67;;
31818;SDS011;18384;48.860;9.188;2022-12-18T01:13:45;83.37;;;34.13;;
31818;SDS011;18384;48.860;9.188;2022-12-18T01:16:12;87.53;;;37.83;;
31818;SDS011;18384;48.860;9.188;2022-12-18T01:18:40;87.32;;;36.90;;
31818;SDS011;18384;48.860;9.188;2022-12-18T01:21:09;83.28;;;36.38;;
31818;SDS011;18384;48.860;9.188;2022-12-18T01:23:38;80.90;;;36.42;;
31818;SDS011;18384;48.860;9.188;2022-12-18T01:28:32;86.65;;;37.25;;
31818;SDS011;18384;48.860;9.188;2022-12-18T01:33:42;82.93;;;36.15;;
31818;SDS011;18384;48.860;9.188;2022-12-18T01:36:14;93.03;;;35.45;;
31818;SDS011;18384;48.860;9.188;2022-12-18T01:38:45;91.97;;;37.92;;
31818;SDS011;18384;48.860;9.188;2022-12-18T01:41:12;87.80;;;37.33;;
31818;SDS011;18384;48.860;9.188;2022-12-18T01:43:48;78.85;;;35.17;;
31818;SDS011;18384;48.860;9.188;2022-12-18T01:46:24;81.82;;;35.03;;
31818;SDS011;18384;48.860;9.188;2022-12-18T01:48:56;81.10;;;37.65;;
31818;SDS011;18384;48.860;9.188;2022-12-18T01:51:25;79.95;;;34.53;;
31818;SDS011;18384;48.860;9.188;2022-12-18T01:53:55;76.53;;;34.83;;
31818;SDS011;18384;48.860;9.188;2022-12-18T01:56:23;78.93;;;34.45;;
31818;SDS011;18384;48.860;9.188;2022-12-18T02:01:24;73.07;;;32.33;;
31818;SDS011;18384;48.860;9.188;2022-12-18T02:03:51;89.60;;;35.05;;
31818;SDS011;18384;48.860;9.188;2022-12-18T02:06:20;78.18;;;34.13;;
31818;SDS011;18384;48.860;9.188;2022-12-18T02:09:04;73.60;;;32.72;;
31818;SDS011;18384;48.860;9.188;2022-12-18T02:16:52;85.93;;;32.25;;
31818;SDS011;18384;48.860;9.188;2022-12-18T02:21:36;76.40;;;31.67;;
31818;SDS011;18384;48.860;9.188;2022-12-18T02:25:58;74.28;;;32.15;;
31818;SDS011;18384;48.860;9.188;2022-12-18T02:28:42;74.78;;;31.27;;
31818;SDS011;18384;48.860;9.188;2022-12-18T02:31:25;78.28;;;32.55;;
31818;SDS011;18384;48.860;9.188;2022-12-18T02:33:56;74.60;;;30.42;;
31818;SDS011;18384;48.860;9.188;2022-12-18T02:36:27;71.97;;;31.48;;
31818;SDS011;18384;48.860;9.188;2022-12-18T02:38:54;71.60;;;30.40;;
31818;SDS011;18384;48.860;9.188;2022-12-18T02:41:22;66.95;;;32.03;;
31818;SDS011;18384;48.860;9.188;2022-12-18T02:43:53;71.78;;;30.67;;
31818;SDS011;18384;48.860;9.188;2022-12-18T02:46:43;71.82;;;31.80;;
31818;SDS011;18384;48.860;9.188;2022-12-18T02:49:24;73.68;;;32.03;;
31818;SDS011;18384;48.860;9.188;2022-12-18T02:53:43;67.53;;;30.35;;
31818;SDS011;18384;48.860;9.188;2022-12-18T03:01:57;76.15;;;28.83;;
31818;SDS011;18384;48.860;9.188;2022-12-18T03:04:35;77.70;;;31.50;;
31818;SDS011;18384;48.860;9.188;2022-12-18T03:11:18;65.45;;;28.42;;
31818;SDS011;18384;48.860;9.188;2022-12-18T03:17:17;65.55;;;30.12;;
31818;SDS011;18384;48.860;9.188;2022-12-18T03:19:48;63.08;;;28.40;;
31818;SDS011;18384;48.860;9.188;2022-12-18T03:22:17;70.10;;;30.15;;
31818;SDS011;18384;48.860;9.188;2022-12-18T03:24:45;69.70;;;29.87;;
31818;SDS011;18384;48.860;9.188;2022-12-18T03:27:14;63.45;;;28.87;;
31818;SDS011;18384;48.860;9.188;2022-12-18T03:29:46;66.93;;;29.83;;
31818;SDS011;18384;48.860;9.188;2022-12-18T03:32:27;69.35;;;28.33;;
31818;SDS011;18384;48.860;9.188;2022-12-18T03:35:02;67.80;;;29.50;;
31818;SDS011;18384;48.860;9.188;2022-12-18T03:37:31;64.97;;;29.77;;
31818;SDS011;18384;48.860;9.188;2022-12-18T03:39:57;56.95;;;27.60;;
31818;SDS011;18384;48.860;9.188;2022-12-18T03:45:37;70.75;;;29.48;;
31818;SDS011;18384;48.860;9.188;2022-12-18T03:48:12;57.15;;;26.73;;
31818;SDS011;18384;48.860;9.188;2022-12-18T03:50:59;63.45;;;27.08;;
31818;SDS011;18384;48.860;9.188;2022-12-18T03:53:52;62.05;;;25.73;;
31818;SDS011;18384;48.860;9.188;2022-12-18T03:56:35;74.68;;;29.12;;
31818;SDS011;18384;48.860;9.188;2022-12-18T03:59:11;57.53;;;26.02;;
31818;SDS011;18384;48.860;9.188;2022-12-18T04:01:41;57.05;;;25.35;;
31818;SDS011;18384;48.860;9.188;2022-12-18T04:04:13;55.55;;;26.25;;
31818;SDS011;18384;48.860;9.188;2022-12-18T04:06:43;57.20;;;26.42;;
31818;SDS011;18384;48.860;9.188;2022-12-18T04:09:11;58.08;;;26.42;;
31818;SDS011;18384;48.860;9.188;2022-12-18T04:11:39;53.97;;;25.55;;
31818;SDS011;18384;48.860;9.188;2022-12-18T04:14:11;54.03;;;25.75;;
31818;SDS011;18384;48.860;9.188;2022-12-18T04:19:03;57.03;;;24.77;;
31818;SDS011;18384;48.860;9.188;2022-12-18T04:21:30;52.55;;;24.70;;
31818;SDS011;18384;48.860;9.188;2022-12-18T04:26:22;56.55;;;24.73;;
31818;SDS011;18384;48.860;9.188;2022-12-18T04:28:48;55.40;;;25.45;;
31818;SDS011;18384;48.860;9.188;2022-12-18T04:31:14;57.97;;;25.90;;
31818;SDS011;18384;48.860;9.188;2022-12-18T04:36:07;55.60;;;24.90;;
31818;SDS011;18384;48.860;9.188;2022-12-18T04:38:33;57.72;;;25.85;;
31818;SDS011;18384;48.860;9.188;2022-12-18T04:43:25;57.80;;;25.25;;
31818;SDS011;18384;48.860;9.188;2022-12-18T04:45:51;62.10;;;25.90;;
31818;SDS011;18384;48.860;9.188;2022-12-18T04:50:43;54.97;;;24.85;;
31818;SDS011;18384;48.860;9.188;2022-12-18T04:53:09;62.40;;;27.25;;
31818;SDS011;18384;48.860;9.188;2022-12-18T04:55:35;56.35;;;26.67;;
31818;SDS011;18384;48.860;9.188;2022-12-18T05:00:27;58.38;;;26.20;;
31818;SDS011;18384;48.860;9.188;2022-12-18T05:02:53;61.28;;;27.90;;
31818;SDS011;18384;48.860;9.188;2022-12-18T05:07:45;56.35;;;25.27;;
31818;SDS011;18384;48.860;9.188;2022-12-18T05:10:12;59.17;;;27.02;;
31818;SDS011;18384;48.860;9.188;2022-12-18T05:12:38;67.07;;;28.50;;
31818;SDS011;18384;48.860;9.188;2022-12-18T05:15:23;60.72;;;26.45;;
31818;SDS011;18384;48.860;9.188;2022-12-18T05:17:53;67.95;;;28.20;;
31818;SDS011;18384;48.860;9.188;2022-12-18T05:22:45;60.38;;;25.80;;
31818;SDS011;18384;48.860;9.188;2022-12-18T05:25:11;64.93;;;27.73;;
31818;SDS011;18384;48.860;9.188;2022-12-18T05:27:37;64.00;;;26.58;;
31818;SDS011;18384;48.860;9.188;2022-12-18T05:30:03;58.85;;;28.17;;
31818;SDS011;18384;48.860;9.188;2022-12-18T05:32:30;67.53;;;28.12;;
31818;SDS011;18384;48.860;9.188;2022-12-18T05:37:22;60.35;;;26.85;;
31818;SDS011;18384;48.860;9.188;2022-12-18T05:42:14;62.28;;;26.95;;
31818;SDS011;18384;48.860;9.188;2022-12-18T05:44:40;58.45;;;26.37;;
31818;SDS011;18384;48.860;9.188;2022-12-18T05:47:07;65.18;;;29.15;;
31818;SDS011;18384;48.860;9.188;2022-12-18T05:49:33;63.80;;;27.75;;
31818;SDS011;18384;48.860;9.188;2022-12-18T05:54:26;62.85;;;26.15;;
31818;SDS011;18384;48.860;9.188;2022-12-18T05:56:53;66.45;;;27.65;;
31818;SDS011;18384;48.860;9.188;2022-12-18T06:01:45;55.72;;;26.42;;
31818;SDS011;18384;48.860;9.188;2022-12-18T06:04:12;57.65;;;27.50;;
31818;SDS011;18384;48.860;9.188;2022-12-18T06:09:04;61.22;;;25.35;;
31818;SDS011;18384;48.860;9.188;2022-12-18T06:11:37;55.38;;;25.62;;
31818;SDS011;18384;48.860;9.188;2022-12-18T06:14:05;57.38;;;25.37;;
31818;SDS011;18384;48.860;9.188;2022-12-18T06:16:32;60.90;;;24.83;;
31818;SDS011;18384;48.860;9.188;2022-12-18T06:18:58;65.50;;;26.77;;
31818;SDS011;18384;48.860;9.188;2022-12-18T06:21:26;55.55;;;24.02;;
31818;SDS011;18384;48.860;9.188;2022-12-18T06:23:53;55.40;;;24.12;;
31818;SDS011;18384;48.860;9.188;2022-12-18T06:28:45;51.58;;;24.23;;
31818;SDS011;18384;48.860;9.188;2022-12-18T06:33:37;55.10;;;24.33;;
31818;SDS011;18384;48.860;9.188;2022-12-18T06:36:05;56.80;;;25.25;;
31818;SDS011;18384;48.860;9.188;2022-12-18T06:38:35;55.53;;;25.88;;
31818;SDS011;18384;48.860;9.188;2022-12-18T06:41:22;53.95;;;26.25;;
31818;SDS011;18384;48.860;9.188;2022-12-18T06:43:48;54.47;;;25.95;;
31818;SDS011;18384;48.860;9.188;2022-12-18T06:48:40;61.13;;;25.33;;
31818;SDS011;18384;48.860;9.188;2022-12-18T06:51:06;54.90;;;24.20;;
31818;SDS011;18384;48.860;9.188;2022-12-18T06:55:59;47.22;;;23.62;;
31818;SDS011;18384;48.860;9.188;2022-12-18T06:58:27;57.22;;;25.00;;
31818;SDS011;18384;48.860;9.188;2022-12-18T07:00:53;50.53;;;24.87;;
31818;SDS011;18384;48.860;9.188;2022-12-18T07:03:27;59.80;;;26.55;;
31818;SDS011;18384;48.860;9.188;2022-12-18T07:08:19;58.20;;;25.80;;
31818;SDS011;18384;48.860;9.188;2022-12-18T07:10:46;55.20;;;24.73;;
31818;SDS011;18384;48.860;9.188;2022-12-18T07:13:14;54.35;;;25.58;;
31818;SDS011;18384;48.860;9.188;2022-12-18T07:15:41;49.75;;;24.10;;
31818;SDS011;18384;48.860;9.188;2022-12-18T07:18:07;59.58;;;25.15;;
31818;SDS011;18384;48.860;9.188;2022-12-18T07:20:34;55.70;;;25.20;;
31818;SDS011;18384;48.860;9.188;2022-12-18T07:25:28;57.90;;;24.33;;
31818;SDS011;18384;48.860;9.188;2022-12-18T07:30:20;54.60;;;25.00;;
31818;SDS011;18384;48.860;9.188;2022-12-18T07:35:13;58.90;;;26.90;;
31818;SDS011;18384;48.860;9.188;2022-12-18T07:40:05;52.58;;;24.77;;
31818;SDS011;18384;48.860;9.188;2022-12-18T07:42:32;54.63;;;25.37;;
31818;SDS011;18384;48.860;9.188;2022-12-18T07:47:28;50.22;;;24.08;;
31818;SDS011;18384;48.860;9.188;2022-12-18T07:50:01;51.80;;;25.20;;
31818;SDS011;18384;48.860;9.188;2022-12-18T07:52:29;54.58;;;24.80;;
31818;SDS011;18384;48.860;9.188;2022-12-18T07:57:21;49.33;;;22.98;;
31818;SDS011;18384;48.860;9.188;2022-12-18T08:02:13;43.07;;;18.83;;
31818;SDS011;18384;48.860;9.188;2022-12-18T08:07:06;54.88;;;24.27;;
31818;SDS011;18384;48.860;9.188;2022-12-18T08:11:58;49.65;;;24.80;;
31818;SDS011;18384;48.860;9.188;2022-12-18T08:14:24;61.55;;;26.08;;
31818;SDS011;18384;48.860;9.188;2022-12-18T08:16:50;53.65;;;25.77;;
31818;SDS011;18384;48.860;9.188;2022-12-18T08:21:42;55.60;;;25.83;;
31818;SDS011;18384;48.860;9.188;2022-12-18T08:24:09;53.47;;;25.25;;
31818;SDS011;18384;48.860;9.188;2022-12-18T08:26:36;54.58;;;26.37;;
31818;SDS011;18384;48.860;9.188;2022-12-18T08:29:02;54.05;;;24.52;;
31818;SDS011;18384;48.860;9.188;2022-12-18T08:33:55;60.20;;;27.90;;
31818;SDS011;18384;48.860;9.188;2022-12-18T08:36:22;56.00;;;27.15;;
31818;SDS011;18384;48.860;9.188;2022-12-18T08:38:48;68.20;;;29.85;;
31818;SDS011;18384;48.860;9.188;2022-12-18T08:43:42;60.63;;;26.60;;
31818;SDS011;18384;48.860;9.188;2022-12-18T08:46:27;59.42;;;24.95;;
31818;SDS011;18384;48.860;9.188;2022-12-18T08:49:00;59.33;;;25.95;;
31818;SDS011;18384;48.860;9.188;2022-12-18T08:51:27;53.90;;;25.92;;
31818;SDS011;18384;48.860;9.188;2022-12-18T08:56:19;60.95;;;25.23;;
31818;SDS011;18384;48.860;9.188;2022-12-18T08:58:45;58.25;;;25.60;;
31818;SDS011;18384;48.860;9.188;2022-12-18T09:03:38;53.75;;;25.77;;
31818;SDS011;18384;48.860;9.188;2022-12-18T09:06:05;61.25;;;27.15;;
31818;SDS011;18384;48.860;9.188;2022-12-18T09:08:31;54.90;;;27.08;;
31818;SDS011;18384;48.860;9.188;2022-12-18T09:10:58;58.25;;;27.45;;
31818;SDS011;18384;48.860;9.188;2022-12-18T09:13:25;54.38;;;26.67;;
31818;SDS011;18384;48.860;9.188;2022-12-18T09:15:52;60.83;;;27.35;;
31818;SDS011;18384;48.860;9.188;2022-12-18T09:18:20;55.20;;;25.70;;
31818;SDS011;18384;48.860;9.188;2022-12-18T09:20:48;51.08;;;25.77;;
31818;SDS011;18384;48.860;9.188;2022-12-18T09:23:17;55.45;;;26.92;;
31818;SDS011;18384;48.860;9.188;2022-12-18T09:25:43;61.50;;;26.45;;
31818;SDS011;18384;48.860;9.188;2022-12-18T09:28:10;59.30;;;25.98;;
31818;SDS011;18384;48.860;9.188;2022-12-18T09:30:40;55.70;;;26.92;;
31818;SDS011;18384;48.860;9.188;2022-12-18T09:33:13;56.83;;;26.48;;
31818;SDS011;18384;48.860;9.188;2022-12-18T09:35:40;58.30;;;26.83;;
31818;SDS011;18384;48.860;9.188;2022-12-18T09:38:08;60.25;;;27.37;;
31818;SDS011;18384;48.860;9.188;2022-12-18T09:40:45;58.63;;;26.60;;
31818;SDS011;18384;48.860;9.188;2022-12-18T09:47:27;57.22;;;24.95;;
31818;SDS011;18384;48.860;9.188;2022-12-18T09:50:04;60.05;;;25.80;;
31818;SDS011;18384;48.860;9.188;2022-12-18T09:53:09;59.72;;;25.95;;
31818;SDS011;18384;48.860;9.188;2022-12-18T09:55:43;55.90;;;25.80;;
31818;SDS011;18384;48.860;9.188;2022-12-18T09:58:31;60.22;;;27.20;;
31818;SDS011;18384;48.860;9.188;2022-12-18T10:01:21;57.62;;;25.75;;
31818;SDS011;18384;48.860;9.188;2022-12-18T10:03:48;56.00;;;26.62;;
31818;SDS011;18384;48.860;9.188;2022-12-18T10:08:59;53.97;;;27.65;;
31818;SDS011;18384;48.860;9.188;2022-12-18T10:13:50;60.83;;;25.40;;
31818;SDS011;18384;48.860;9.188;2022-12-18T10:27:39;57.67;;;25.27;;
31818;SDS011;18384;48.860;9.188;2022-12-18T10:30:12;58.25;;;26.30;;
31818;SDS011;18384;48.860;9.188;2022-12-18T10:32:41;61.65;;;27.05;;
31818;SDS011;18384;48.860;9.188;2022-12-18T10:38:04;56.57;;;27.30;;
31818;SDS011;18384;48.860;9.188;2022-12-18T10:40:51;61.22;;;25.45;;
31818;SDS011;18384;48.860;9.188;2022-12-18T10:43:26;61.90;;;26.73;;
31818;SDS011;18384;48.860;9.188;2022-12-18T10:49:01;61.65;;;26.35;;
31818;SDS011;18384;48.860;9.188;2022-12-18T10:54:00;54.53;;;23.62;;
31818;SDS011;18384;48.860;9.188;2022-12-18T10:56:33;54.40;;;24.65;;
31818;SDS011;18384;48.860;9.188;2022-12-18T10:59:02;55.53;;;25.80;;
31818;SDS011;18384;48.860;9.188;2022-12-18T11:01:50;62.72;;;27.90;;
31818;SDS011;18384;48.860;9.188;2022-12-18T11:04:23;57.62;;;24.25;;
31818;SDS011;18384;48.860;9.188;2022-12-18T11:07:07;55.45;;;25.98;;
31818;SDS011;18384;48.860;9.188;2022-12-18T11:09:37;53.25;;;25.00;;
31818;SDS011;18384;48.860;9.188;2022-12-18T11:12:18;56.47;;;24.92;;
31818;SDS011;18384;48.860;9.188;2022-12-18T11:14:47;51.08;;;23.87;;
31818;SDS011;18384;48.860;9.188;2022-12-18T11:17:20;49.35;;;23.33;;
31818;SDS011;18384;48.860;9.188;2022-12-18T11:19:58;58.35;;;22.95;;
31818;SDS011;18384;48.860;9.188;2022-12-18T11:22:28;52.55;;;25.02;;
31818;SDS011;18384;48.860;9.188;2022-12-18T11:25:01;46.50;;;22.52;;
31818;SDS011;18384;48.860;9.188;2022-12-18T11:27:51;56.90;;;23.70;;
31818;SDS011;18384;48.860;9.188;2022-12-18T11:30:25;53.13;;;24.20;;
31818;SDS011;18384;48.860;9.188;2022-12-18T11:33:10;56.00;;;25.23;;
31818;SDS011;18384;48.860;9.188;2022-12-18T11:35:44;49.17;;;22.08;;
31818;SDS011;18384;48.860;9.188;2022-12-18T11:38:24;52.95;;;25.27;;
31818;SDS011;18384;48.860;9.188;2022-12-18T11:48:22;51.80;;;25.30;;
31818;SDS011;18384;48.860;9.188;2022-12-18T11:50:58;51.28;;;25.08;;
31818;SDS011;18384;48.860;9.188;2022-12-18T11:53:27;54.38;;;25.02;;
31818;SDS011;18384;48.860;9.188;2022-12-18T11:56:01;54.33;;;24.37;;
31818;SDS011;18384;48.860;9.188;2022-12-18T12:18:47;54.20;;;23.80;;
31818;SDS011;18384;48.860;9.188;2022-12-18T12:21:41;52.38;;;25.17;;
31818;SDS011;18384;48.860;9.188;2022-12-18T12:25:27;57.42;;;25.33;;
31818;SDS011;18384;48.860;9.188;2022-12-18T12:39:05;57.05;;;25.92;;
31818;SDS011;18384;48.860;9.188;2022-12-18T12:41:39;52.53;;;25.17;;
31818;SDS011;18384;48.860;9.188;2022-12-18T12:44:26;57.22;;;25.95;;
31818;SDS011;18384;48.860;9.188;2022-12-18T12:46:59;52.47;;;25.95;;
31818;SDS011;18384;48.860;9.188;2022-12-18T12:49:39;47.28;;;24.42;;
31818;SDS011;18384;48.860;9.188;2022-12-18T12:52:07;55.12;;;25.52;;
31818;SDS011;18384;48.860;9.188;2022-12-18T12:54:39;60.80;;;26.08;;
31818;SDS011;18384;48.860;9.188;2022-12-18T12:57:51;59.90;;;26.33;;
31818;SDS011;18384;48.860;9.188;2022-12-18T13:00:35;54.45;;;26.58;;
31818;SDS011;18384;48.860;9.188;2022-12-18T13:07:26;59.72;;;25.62;;
31818;SDS011;18384;48.860;9.188;2022-12-18T13:14:38;54.53;;;24.85;;
31818;SDS011;18384;48.860;9.188;2022-12-18T13:17:26;56.53;;;24.85;;
31818;SDS011;18384;48.860;9.188;2022-12-18T13:20:09;46.05;;;22.73;;
31818;SDS011;18384;48.860;9.188;2022-12-18T13:22:45;50.47;;;22.73;;
31818;SDS011;18384;48.860;9.188;2022-12-18T13:25:30;53.10;;;24.30;;
31818;SDS011;18384;48.860;9.188;2022-12-18T13:28:03;52.97;;;24.60;;
31818;SDS011;18384;48.860;9.188;2022-12-18T13:30:45;53.58;;;26.05;;
31818;SDS011;18384;48.860;9.188;2022-12-18T13:33:41;63.10;;;27.13;;
31818;SDS011;18384;48.860;9.188;2022-12-18T13:36:28;66.75;;;28.02;;
31818;SDS011;18384;48.860;9.188;2022-12-18T13:39:10;59.70;;;26.40;;
31818;SDS011;18384;48.860;9.188;2022-12-18T13:41:51;54.72;;;22.65;;
31818;SDS011;18384;48.860;9.188;2022-12-18T13:45:41;57.05;;;23.12;;
31818;SDS011;18384;48.860;9.188;2022-12-18T13:48:17;75.30;;;33.42;;
31818;SDS011;18384;48.860;9.188;2022-12-18T13:50:57;60.28;;;26.33;;
31818;SDS011;18384;48.860;9.188;2022-12-18T13:53:47;56.45;;;25.17;;
31818;SDS011;18384;48.860;9.188;2022-12-18T13:56:28;50.42;;;22.52;;
31818;SDS011;18384;48.860;9.188;2022-12-18T13:59:10;53.15;;;24.55;;
31818;SDS011;18384;48.860;9.188;2022-12-18T14:02:23;59.88;;;25.98;;
31818;SDS011;18384;48.860;9.188;2022-12-18T14:04:52;52.58;;;24.05;;
31818;SDS011;18384;48.860;9.188;2022-12-18T14:07:21;76.97;;;24.98;;
31818;SDS011;18384;48.860;9.188;2022-12-18T14:09:52;63.10;;;24.35;;
31818;SDS011;18384;48.860;9.188;2022-12-18T14:12:32;51.50;;;23.60;;
31818;SDS011;18384;48.860;9.188;2022-12-18T14:18:36;56.22;;;23.62;;
31818;SDS011;18384;48.860;9.188;2022-12-18T14:21:25;47.53;;;22.30;;
31818;SDS011;18384;48.860;9.188;2022-12-18T14:29:51;49.90;;;22.35;;
31818;SDS011;18384;48.860;9.188;2022-12-18T14:32:18;54.28;;;24.85;;
31818;SDS011;18384;48.860;9.188;2022-12-18T14:34:52;49.03;;;23.05;;
31818;SDS011;18384;48.860;9.188;2022-12-18T14:37:26;51.85;;;24.73;;
31818;SDS011;18384;48.860;9.188;2022-12-18T14:40:00;52.65;;;24.30;;
31818;SDS011;18384;48.860;9.188;2022-12-18T14:42:29;52.45;;;24.65;;
31818;SDS011;18384;48.860;9.188;2022-12-18T14:47:59;70.43;;;28.27;;
31818;SDS011;18384;48.860;9.188;2022-12-18T14:50:25;67.07;;;27.90;;
31818;SDS011;18384;48.860;9.188;2022-12-18T14:55:18;58.63;;;26.77;;
31818;SDS011;18384;48.860;9.188;2022-12-18T14:57:46;58.58;;;24.83;;
31818;SDS011;18384;48.860;9.188;2022-12-18T15:00:18;67.60;;;28.35;;
31818;SDS011;18384;48.860;9.188;2022-12-18T15:02:50;56.50;;;26.65;;
31818;SDS011;18384;48.860;9.188;2022-12-18T15:05:28;60.50;;;26.95;;
31818;SDS011;18384;48.860;9.188;2022-12-18T15:07:56;67.03;;;27.77;;
31818;SDS011;18384;48.860;9.188;2022-12-18T15:10:29;64.22;;;26.90;;
31818;SDS011;18384;48.860;9.188;2022-12-18T15:13:07;58.83;;;27.10;;
31818;SDS011;18384;48.860;9.188;2022-12-18T15:15:43;62.70;;;28.45;;
31818;SDS011;18384;48.860;9.188;2022-12-18T15:18:12;66.30;;;30.70;;
31818;SDS011;18384;48.860;9.188;2022-12-18T15:20:45;66.55;;;31.98;;
31818;SDS011;18384;48.860;9.188;2022-12-18T15:23:27;66.95;;;31.62;;
31818;SDS011;18384;48.860;9.188;2022-12-18T15:26:17;60.12;;;30.27;;
31818;SDS011;18384;48.860;9.188;2022-12-18T15:28:53;77.78;;;32.67;;
31818;SDS011;18384;48.860;9.188;2022-12-18T15:31:28;67.68;;;30.37;;
31818;SDS011;18384;48.860;9.188;2022-12-18T15:34:12;71.95;;;31.90;;
31818;SDS011;18384;48.860;9.188;2022-12-18T15:36:50;66.05;;;29.95;;
31818;SDS011;18384;48.860;9.188;2022-12-18T15:39:17;70.12;;;29.87;;
31818;SDS011;18384;48.860;9.188;2022-12-18T15:41:43;63.50;;;29.75;;
31818;SDS011;18384;48.860;9.188;2022-12-18T15:45:59;68.40;;;29.73;;
31818;SDS011;18384;48.860;9.188;2022-12-18T15:48:31;64.97;;;27.92;;
31818;SDS011;18384;48.860;9.188;2022-12-18T15:51:00;69.15;;;30.58;;
31818;SDS011;18384;48.860;9.188;2022-12-18T15:53:32;68.85;;;30.10;;
31818;SDS011;18384;48.860;9.188;2022-12-18T15:55:59;65.10;;;29.60;;
31818;SDS011;18384;48.860;9.188;2022-12-18T15:58:44;69.22;;;31.95;;
31818;SDS011;18384;48.860;9.188;2022-12-18T16:01:10;79.95;;;33.33;;
31818;SDS011;18384;48.860;9.188;2022-12-18T16:03:37;74.05;;;34.38;;
31818;SDS011;18384;48.860;9.188;2022-12-18T16:06:03;82.30;;;36.33;;
31818;SDS011;18384;48.860;9.188;2022-12-18T16:08:29;79.70;;;35.33;;
31818;SDS011;18384;48.860;9.188;2022-12-18T16:10:56;79.82;;;36.05;;
31818;SDS011;18384;48.860;9.188;2022-12-18T16:13:23;80.47;;;34.55;;
31818;SDS011;18384;48.860;9.188;2022-12-18T16:15:49;85.22;;;34.75;;
31818;SDS011;18384;48.860;9.188;2022-12-18T16:20:41;75.87;;;34.00;;
31818;SDS011;18384;48.860;9.188;2022-12-18T16:23:07;64.15;;;31.75;;
31818;SDS011;18384;48.860;9.188;2022-12-18T16:25:33;69.18;;;31.80;;
31818;SDS011;18384;48.860;9.188;2022-12-18T16:28:00;69.25;;;32.17;;
31818;SDS011;18384;48.860;9.188;2022-12-18T16:30:27;84.13;;;36.38;;
31818;SDS011;18384;48.860;9.188;2022-12-18T16:32:56;93.30;;;36.13;;
31818;SDS011;18384;48.860;9.188;2022-12-18T16:35:23;77.85;;;34.40;;
31818;SDS011;18384;48.860;9.188;2022-12-18T16:37:50;81.57;;;35.78;;
31818;SDS011;18384;48.860;9.188;2022-12-18T16:40:16;70.65;;;31.87;;
31818;SDS011;18384;48.860;9.188;2022-12-18T16:42:44;71.72;;;32.05;;
31818;SDS011;18384;48.860;9.188;2022-12-18T16:45:13;73.00;;;31.02;;
31818;SDS011;18384;48.860;9.188;2022-12-18T16:47:41;66.78;;;31.08;;
31818;SDS011;18384;48.860;9.188;2022-12-18T16:50:08;69.90;;;32.13;;
31818;SDS011;18384;48.860;9.188;2022-12-18T16:52:35;81.72;;;32.72;;
31818;SDS011;18384;48.860;9.188;2022-12-18T16:55:01;72.35;;;30.30;;
31818;SDS011;18384;48.860;9.188;2022-12-18T16:57:27;68.37;;;31.10;;
31818;SDS011;18384;48.860;9.188;2022-12-18T16:59:53;69.90;;;31.58;;
31818;SDS011;18384;48.860;9.188;2022-12-18T17:02:20;66.90;;;31.27;;
31818;SDS011;18384;48.860;9.188;2022-12-18T17:04:51;74.82;;;32.75;;
31818;SDS011;18384;48.860;9.188;2022-12-18T17:07:21;71.72;;;31.12;;
31818;SDS011;18384;48.860;9.188;2022-12-18T17:09:47;69.40;;;28.08;;
31818;SDS011;18384;48.860;9.188;2022-12-18T17:12:15;74.30;;;32.22;;
31818;SDS011;18384;48.860;9.188;2022-12-18T17:14:42;67.03;;;31.20;;
31818;SDS011;18384;48.860;9.188;2022-12-18T17:17:08;72.45;;;32.03;;
31818;SDS011;18384;48.860;9.188;2022-12-18T17:19:34;75.53;;;31.25;;
31818;SDS011;18384;48.860;9.188;2022-12-18T17:22:00;79.47;;;33.83;;
31818;SDS011;18384;48.860;9.188;2022-12-18T17:24:26;71.03;;;32.33;;
31818;SDS011;18384;48.860;9.188;2022-12-18T17:26:52;75.30;;;32.67;;
31818;SDS011;18384;48.860;9.188;2022-12-18T17:29:19;74.78;;;32.63;;
31818;SDS011;18384;48.860;9.188;2022-12-18T17:31:46;69.28;;;32.78;;
31818;SDS011;18384;48.860;9.188;2022-12-18T17:34:12;70.57;;;32.17;;
31818;SDS011;18384;48.860;9.188;2022-12-18T17:36:39;72.45;;;31.87;;
31818;SDS011;18384;48.860;9.188;2022-12-18T17:39:05;73.22;;;33.25;;
31818;SDS011;18384;48.860;9.188;2022-12-18T17:41:32;65.85;;;31.65;;
31818;SDS011;18384;48.860;9.188;2022-12-18T17:44:00;67.07;;;31.50;;
31818;SDS011;18384;48.860;9.188;2022-12-18T17:46:31;72.65;;;32.65;;
31818;SDS011;18384;48.860;9.188;2022-12-18T17:49:00;68.75;;;31.17;;
31818;SDS011;18384;48.860;9.188;2022-12-18T17:51:27;70.18;;;31.23;;
31818;SDS011;18384;48.860;9.188;2022-12-18T17:53:54;80.57;;;30.17;;
31818;SDS011;18384;48.860;9.188;2022-12-18T17:58:47;67.40;;;29.70;;
31818;SDS011;18384;48.860;9.188;2022-12-18T18:01:15;67.68;;;29.25;;
31818;SDS011;18384;48.860;9.188;2022-12-18T18:03:45;62.70;;;30.65;;
31818;SDS011;18384;48.860;9.188;2022-12-18T18:06:12;68.05;;;31.12;;
31818;SDS011;18384;48.860;9.188;2022-12-18T18:08:38;73.53;;;30.95;;
31818;SDS011;18384;48.860;9.188;2022-12-18T18:11:05;70.00;;;32.17;;
31818;SDS011;18384;48.860;9.188;2022-12-18T18:13:59;78.82;;;33.42;;
31818;SDS011;18384;48.860;9.188;2022-12-18T18:16:30;73.53;;;32.85;;
31818;SDS011;18384;48.860;9.188;2022-12-18T18:19:05;66.43;;;30.33;;
31818;SDS011;18384;48.860;9.188;2022-12-18T18:21:35;62.13;;;28.65;;
31818;SDS011;18384;48.860;9.188;2022-12-18T18:24:05;77.70;;;33.03;;
31818;SDS011;18384;48.860;9.188;2022-12-18T18:26:32;87.20;;;36.70;;
31818;SDS011;18384;48.860;9.188;2022-12-18T18:29:00;81.80;;;35.05;;
31818;SDS011;18384;48.860;9.188;2022-12-18T18:31:28;72.30;;;32.97;;